sensor_id;sensor_type;location;lat;lon;timestamp;pressure;altitude;pressure_sealevel;temperature;humidity
48606;BME280;8482;54.396;18.590;2022-09-03T00:01:09;102222.06;;;14.40;67.48
48606;BME280;8482;54.396;18.590;2022-09-03T00:03:48;102221.75;;;14.45;67.44
48606;BME280;8482;54.396;18.590;2022-09-03T00:06:26;102223.53;;;14.44;67.01
48606;BME280;8482;54.396;18.590;2022-09-03T00:09:18;102237.53;;;14.48;67.60
48606;BME280;8482;54.396;18.590;2022-09-03T00:12:10;102228.88;;;14.44;67.06
48606;BME280;8482;54.396;18.590;2022-09-03T00:14:50;102234.63;;;14.51;67.02
48606;BME280;8482;54.396;18.590;2022-09-03T00:17:24;102233.56;;;14.53;66.66
48606;BME280;8482;54.396;18.590;2022-09-03T00:20:02;102229.81;;;14.56;66.90
48606;BME280;8482;54.396;18.590;2022-09-03T00:22:39;102224.47;;;14.56;66.56
48606;BME280;8482;54.396;18.590;2022-09-03T00:25:12;102220.63;;;14.60;66.59
48606;BME280;8482;54.396;18.590;2022-09-03T00:27:42;102231.81;;;14.65;65.78
48606;BME280;8482;54.396;18.590;2022-09-03T00:30:14;102239.63;;;14.68;65.57
48606;BME280;8482;54.396;18.590;2022-09-03T00:33:23;102233.22;;;14.71;65.56
48606;BME280;8482;54.396;18.590;2022-09-03T00:35:53;102231.28;;;14.73;65.76
48606;BME280;8482;54.396;18.590;2022-09-03T00:38:20;102234.47;;;14.78;65.87
48606;BME280;8482;54.396;18.590;2022-09-03T00:41:18;102241.53;;;14.79;66.30
48606;BME280;8482;54.396;18.590;2022-09-03T00:49:45;102251.88;;;14.84;66.04
48606;BME280;8482;54.396;18.590;2022-09-03T00:55:44;102257.22;;;14.84;66.25
48606;BME280;8482;54.396;18.590;2022-09-03T01:00:55;102283.59;;;14.89;67.83
48606;BME280;8482;54.396;18.590;2022-09-03T01:09:49;102293.53;;;14.86;71.57
48606;BME280;8482;54.396;18.590;2022-09-03T01:18:51;102289.09;;;14.74;74.89
48606;BME280;8482;54.396;18.590;2022-09-03T01:22:07;102290.47;;;14.67;75.88
48606;BME280;8482;54.396;18.590;2022-09-03T01:30:44;102277.25;;;14.52;77.55
48606;BME280;8482;54.396;18.590;2022-09-03T01:33:23;102283.78;;;14.48;77.97
48606;BME280;8482;54.396;18.590;2022-09-03T01:41:43;102269.38;;;14.38;77.46
48606;BME280;8482;54.396;18.590;2022-09-03T01:47:59;102265.53;;;14.29;77.85
48606;BME280;8482;54.396;18.590;2022-09-03T01:50:57;102273.66;;;14.28;77.49
48606;BME280;8482;54.396;18.590;2022-09-03T02:00:07;102263.75;;;14.17;77.98
48606;BME280;8482;54.396;18.590;2022-09-03T02:02:34;102266.53;;;14.15;77.67
48606;BME280;8482;54.396;18.590;2022-09-03T02:05:10;102267.47;;;14.14;77.86
48606;BME280;8482;54.396;18.590;2022-09-03T02:08:02;102257.78;;;14.13;77.48
48606;BME280;8482;54.396;18.590;2022-09-03T02:10:40;102263.94;;;14.14;77.53
48606;BME280;8482;54.396;18.590;2022-09-03T02:15:57;102259.78;;;14.09;77.57
48606;BME280;8482;54.396;18.590;2022-09-03T02:18:32;102259.06;;;14.07;77.27
48606;BME280;8482;54.396;18.590;2022-09-03T02:20:59;102256.59;;;14.04;77.37
48606;BME280;8482;54.396;18.590;2022-09-03T02:23:26;102262.69;;;14.06;77.51
48606;BME280;8482;54.396;18.590;2022-09-03T02:25:58;102247.28;;;13.97;77.36
48606;BME280;8482;54.396;18.590;2022-09-03T02:28:27;102255.84;;;14.02;77.58
48606;BME280;8482;54.396;18.590;2022-09-03T02:30:53;102252.53;;;13.99;77.64
48606;BME280;8482;54.396;18.590;2022-09-03T02:33:19;102256.91;;;14.00;78.08
48606;BME280;8482;54.396;18.590;2022-09-03T02:35:45;102259.59;;;14.00;78.17
48606;BME280;8482;54.396;18.590;2022-09-03T02:38:24;102258.72;;;13.99;78.67
48606;BME280;8482;54.396;18.590;2022-09-03T02:40:50;102251.03;;;13.94;78.51
48606;BME280;8482;54.396;18.590;2022-09-03T02:43:26;102258.91;;;13.96;78.39
48606;BME280;8482;54.396;18.590;2022-09-03T02:46:01;102266.19;;;13.94;78.48
48606;BME280;8482;54.396;18.590;2022-09-03T02:48:28;102256.69;;;13.90;78.35
48606;BME280;8482;54.396;18.590;2022-09-03T02:50:54;102255.94;;;13.88;78.08
48606;BME280;8482;54.396;18.590;2022-09-03T02:53:20;102262.16;;;13.88;78.21
48606;BME280;8482;54.396;18.590;2022-09-03T02:55:46;102253.47;;;13.85;78.18
48606;BME280;8482;54.396;18.590;2022-09-03T02:58:12;102254.34;;;13.85;77.98
48606;BME280;8482;54.396;18.590;2022-09-03T03:00:38;102259.78;;;13.84;78.48
48606;BME280;8482;54.396;18.590;2022-09-03T03:03:05;102259.88;;;13.82;79.07
48606;BME280;8482;54.396;18.590;2022-09-03T03:05:45;102262.75;;;13.79;79.12
48606;BME280;8482;54.396;18.590;2022-09-03T03:08:13;102264.38;;;13.82;79.45
48606;BME280;8482;54.396;18.590;2022-09-03T03:10:40;102252.09;;;13.79;79.64
48606;BME280;8482;54.396;18.590;2022-09-03T03:13:08;102267.88;;;13.82;79.53
48606;BME280;8482;54.396;18.590;2022-09-03T03:15:34;102265.22;;;13.82;79.60
48606;BME280;8482;54.396;18.590;2022-09-03T03:17:59;102266.28;;;13.79;80.09
48606;BME280;8482;54.396;18.590;2022-09-03T03:20:25;102270.69;;;13.81;80.28
48606;BME280;8482;54.396;18.590;2022-09-03T03:22:51;102267.47;;;13.75;80.76
48606;BME280;8482;54.396;18.590;2022-09-03T03:25:16;102272.47;;;13.80;80.85
48606;BME280;8482;54.396;18.590;2022-09-03T03:27:42;102275.13;;;13.80;81.21
48606;BME280;8482;54.396;18.590;2022-09-03T03:30:10;102276.09;;;13.79;81.30
48606;BME280;8482;54.396;18.590;2022-09-03T03:32:37;102273.44;;;13.79;81.35
48606;BME280;8482;54.396;18.590;2022-09-03T03:35:05;102271.84;;;13.76;80.97
48606;BME280;8482;54.396;18.590;2022-09-03T03:37:32;102273.66;;;13.76;81.36
48606;BME280;8482;54.396;18.590;2022-09-03T03:39:58;102276.41;;;13.74;81.43
48606;BME280;8482;54.396;18.590;2022-09-03T03:42:24;102278.13;;;13.75;81.98
48606;BME280;8482;54.396;18.590;2022-09-03T03:44:49;102268.41;;;13.74;81.76
48606;BME280;8482;54.396;18.590;2022-09-03T03:47:15;102270.88;;;13.77;81.82
48606;BME280;8482;54.396;18.590;2022-09-03T03:49:43;102269.28;;;13.75;81.42
48606;BME280;8482;54.396;18.590;2022-09-03T03:52:09;102267.91;;;13.69;81.47
48606;BME280;8482;54.396;18.590;2022-09-03T03:54:35;102279.19;;;13.73;80.93
48606;BME280;8482;54.396;18.590;2022-09-03T03:57:01;102286.44;;;13.71;80.93
48606;BME280;8482;54.396;18.590;2022-09-03T03:59:27;102281.44;;;13.66;81.04
48606;BME280;8482;54.396;18.590;2022-09-03T04:01:56;102284.94;;;13.67;80.61
48606;BME280;8482;54.396;18.590;2022-09-03T04:04:22;102276.19;;;13.64;81.12
48606;BME280;8482;54.396;18.590;2022-09-03T04:06:47;102278.00;;;13.64;80.99
48606;BME280;8482;54.396;18.590;2022-09-03T04:09:13;102260.41;;;13.61;81.28
48606;BME280;8482;54.396;18.590;2022-09-03T04:11:39;102257.75;;;13.61;81.43
48606;BME280;8482;54.396;18.590;2022-09-03T04:14:05;102251.75;;;13.58;81.51
48606;BME280;8482;54.396;18.590;2022-09-03T04:16:30;102257.84;;;13.60;82.01
48606;BME280;8482;54.396;18.590;2022-09-03T04:18:57;102268.50;;;13.60;81.60
48606;BME280;8482;54.396;18.590;2022-09-03T04:21:27;102261.56;;;13.57;82.13
48606;BME280;8482;54.396;18.590;2022-09-03T04:23:53;102259.00;;;13.56;81.66
48606;BME280;8482;54.396;18.590;2022-09-03T04:26:26;102268.94;;;13.54;81.46
48606;BME280;8482;54.396;18.590;2022-09-03T04:28:56;102262.91;;;13.50;81.61
48606;BME280;8482;54.396;18.590;2022-09-03T04:31:22;102264.00;;;13.47;82.09
48606;BME280;8482;54.396;18.590;2022-09-03T04:33:48;102273.69;;;13.48;81.62
48606;BME280;8482;54.396;18.590;2022-09-03T04:36:18;102272.84;;;13.48;82.09
48606;BME280;8482;54.396;18.590;2022-09-03T04:38:47;102276.47;;;13.47;82.17
48606;BME280;8482;54.396;18.590;2022-09-03T04:41:17;102285.50;;;13.44;82.07
48606;BME280;8482;54.396;18.590;2022-09-03T04:43:44;102285.50;;;13.44;82.36
48606;BME280;8482;54.396;18.590;2022-09-03T04:46:12;102280.28;;;13.43;82.45
48606;BME280;8482;54.396;18.590;2022-09-03T04:48:39;102279.34;;;13.44;81.96
48606;BME280;8482;54.396;18.590;2022-09-03T04:51:14;102271.53;;;13.41;81.75
48606;BME280;8482;54.396;18.590;2022-09-03T04:53:46;102283.06;;;13.41;81.63
48606;BME280;8482;54.396;18.590;2022-09-03T04:56:16;102283.06;;;13.41;81.38
48606;BME280;8482;54.396;18.590;2022-09-03T04:58:43;102279.47;;;13.42;81.70
48606;BME280;8482;54.396;18.590;2022-09-03T05:01:20;102282.22;;;13.41;81.00
48606;BME280;8482;54.396;18.590;2022-09-03T05:03:47;102277.91;;;13.38;80.65
48606;BME280;8482;54.396;18.590;2022-09-03T05:06:13;102279.81;;;13.36;80.02
48606;BME280;8482;54.396;18.590;2022-09-03T05:08:42;102282.78;;;13.31;80.03
48606;BME280;8482;54.396;18.590;2022-09-03T05:11:11;102276.59;;;13.31;79.81
48606;BME280;8482;54.396;18.590;2022-09-03T05:13:37;102275.19;;;13.25;79.65
48606;BME280;8482;54.396;18.590;2022-09-03T05:16:07;102267.44;;;13.22;79.48
48606;BME280;8482;54.396;18.590;2022-09-03T05:18:34;102276.06;;;13.26;80.07
48606;BME280;8482;54.396;18.590;2022-09-03T05:21:15;102287.38;;;13.29;80.39
48606;BME280;8482;54.396;18.590;2022-09-03T05:23:45;102291.09;;;13.27;80.35
48606;BME280;8482;54.396;18.590;2022-09-03T05:26:20;102279.69;;;13.25;80.84
48606;BME280;8482;54.396;18.590;2022-09-03T05:28:47;102285.78;;;13.27;81.04
48606;BME280;8482;54.396;18.590;2022-09-03T05:31:19;102289.28;;;13.27;80.51
48606;BME280;8482;54.396;18.590;2022-09-03T05:33:51;102283.19;;;13.25;80.83
48606;BME280;8482;54.396;18.590;2022-09-03T05:36:21;102277.41;;;13.18;80.81
48606;BME280;8482;54.396;18.590;2022-09-03T05:38:48;102290.44;;;13.23;80.71
48606;BME280;8482;54.396;18.590;2022-09-03T05:41:16;102291.09;;;13.27;80.79
48606;BME280;8482;54.396;18.590;2022-09-03T05:43:43;102291.84;;;13.29;81.30
48606;BME280;8482;54.396;18.590;2022-09-03T05:46:14;102293.53;;;13.30;81.13
48606;BME280;8482;54.396;18.590;2022-09-03T05:48:43;102298.13;;;13.28;81.23
48606;BME280;8482;54.396;18.590;2022-09-03T05:51:15;102295.47;;;13.28;81.19
48606;BME280;8482;54.396;18.590;2022-09-03T05:53:46;102289.59;;;13.23;80.89
48606;BME280;8482;54.396;18.590;2022-09-03T05:56:16;102296.19;;;13.30;80.78
48606;BME280;8482;54.396;18.590;2022-09-03T05:58:49;102283.09;;;13.27;80.96
48606;BME280;8482;54.396;18.590;2022-09-03T06:01:24;102286.41;;;13.30;80.67
48606;BME280;8482;54.396;18.590;2022-09-03T06:04:00;102283.94;;;13.27;80.14
48606;BME280;8482;54.396;18.590;2022-09-03T06:06:29;102292.88;;;13.26;79.83
48606;BME280;8482;54.396;18.590;2022-09-03T06:08:59;102302.41;;;13.30;80.22
48606;BME280;8482;54.396;18.590;2022-09-03T06:11:27;102290.16;;;13.28;80.06
48606;BME280;8482;54.396;18.590;2022-09-03T06:14:06;102296.00;;;13.33;79.98
48606;BME280;8482;54.396;18.590;2022-09-03T06:16:37;102286.22;;;13.33;79.88
48606;BME280;8482;54.396;18.590;2022-09-03T06:19:04;102286.09;;;13.35;79.64
48606;BME280;8482;54.396;18.590;2022-09-03T06:21:32;102298.84;;;13.44;79.72
48606;BME280;8482;54.396;18.590;2022-09-03T06:23:58;102298.44;;;13.51;79.81
48606;BME280;8482;54.396;18.590;2022-09-03T06:26:24;102291.22;;;13.53;80.04
48606;BME280;8482;54.396;18.590;2022-09-03T06:28:50;102297.81;;;13.60;80.26
48606;BME280;8482;54.396;18.590;2022-09-03T06:31:20;102291.44;;;13.62;79.17
48606;BME280;8482;54.396;18.590;2022-09-03T06:33:47;102305.88;;;13.73;79.61
48606;BME280;8482;54.396;18.590;2022-09-03T06:36:16;102303.94;;;13.75;79.67
48606;BME280;8482;54.396;18.590;2022-09-03T06:38:44;102307.91;;;13.82;78.50
48606;BME280;8482;54.396;18.590;2022-09-03T06:41:16;102309.94;;;13.91;78.83
48606;BME280;8482;54.396;18.590;2022-09-03T06:43:54;102309.19;;;14.02;78.49
48606;BME280;8482;54.396;18.590;2022-09-03T06:46:24;102296.69;;;14.03;76.84
48606;BME280;8482;54.396;18.590;2022-09-03T06:48:50;102304.84;;;14.14;75.76
48606;BME280;8482;54.396;18.590;2022-09-03T06:51:23;102300.97;;;14.18;74.43
48606;BME280;8482;54.396;18.590;2022-09-03T06:53:58;102302.16;;;14.27;73.64
48606;BME280;8482;54.396;18.590;2022-09-03T06:56:25;102306.97;;;14.35;73.03
48606;BME280;8482;54.396;18.590;2022-09-03T06:58:54;102292.31;;;14.40;73.13
48606;BME280;8482;54.396;18.590;2022-09-03T07:01:27;102299.59;;;14.51;72.26
48606;BME280;8482;54.396;18.590;2022-09-03T07:04:00;102296.38;;;14.59;72.07
48606;BME280;8482;54.396;18.590;2022-09-03T07:06:29;102301.91;;;14.69;71.83
48606;BME280;8482;54.396;18.590;2022-09-03T07:08:55;102296.00;;;14.77;71.68
48606;BME280;8482;54.396;18.590;2022-09-03T07:11:28;102301.69;;;14.85;71.58
48606;BME280;8482;54.396;18.590;2022-09-03T07:13:55;102296.97;;;14.89;71.18
48606;BME280;8482;54.396;18.590;2022-09-03T07:16:34;102306.75;;;15.01;70.97
48606;BME280;8482;54.396;18.590;2022-09-03T07:19:01;102314.19;;;15.09;71.27
48606;BME280;8482;54.396;18.590;2022-09-03T07:21:31;102312.69;;;15.17;71.10
48606;BME280;8482;54.396;18.590;2022-09-03T07:23:59;102321.09;;;15.24;71.25
48606;BME280;8482;54.396;18.590;2022-09-03T07:26:31;102320.41;;;15.33;70.87
48606;BME280;8482;54.396;18.590;2022-09-03T07:28:58;102317.28;;;15.40;70.90
48606;BME280;8482;54.396;18.590;2022-09-03T07:31:34;102315.72;;;15.48;70.40
48606;BME280;8482;54.396;18.590;2022-09-03T07:34:04;102310.06;;;15.53;69.63
48606;BME280;8482;54.396;18.590;2022-09-03T07:36:42;102309.78;;;15.56;68.76
48606;BME280;8482;54.396;18.590;2022-09-03T07:39:13;102314.09;;;15.59;68.57
48606;BME280;8482;54.396;18.590;2022-09-03T07:41:40;102324.91;;;15.69;68.26
48606;BME280;8482;54.396;18.590;2022-09-03T07:44:12;102317.53;;;15.72;67.68
48606;BME280;8482;54.396;18.590;2022-09-03T07:46:40;102316.22;;;15.78;67.37
48606;BME280;8482;54.396;18.590;2022-09-03T07:49:06;102317.66;;;15.82;67.44
48606;BME280;8482;54.396;18.590;2022-09-03T07:51:37;102319.91;;;15.88;66.84
48606;BME280;8482;54.396;18.590;2022-09-03T07:54:09;102329.41;;;15.92;66.14
48606;BME280;8482;54.396;18.590;2022-09-03T07:56:38;102325.50;;;15.97;66.49
48606;BME280;8482;54.396;18.590;2022-09-03T07:59:05;102329.44;;;16.04;66.20
48606;BME280;8482;54.396;18.590;2022-09-03T08:01:32;102327.97;;;16.11;65.98
48606;BME280;8482;54.396;18.590;2022-09-03T08:04:00;102322.53;;;16.13;65.52
48606;BME280;8482;54.396;18.590;2022-09-03T08:06:28;102333.59;;;16.19;64.94
48606;BME280;8482;54.396;18.590;2022-09-03T08:11:26;102339.94;;;16.30;63.81
48606;BME280;8482;54.396;18.590;2022-09-03T08:14:00;102341.06;;;16.38;63.34
48606;BME280;8482;54.396;18.590;2022-09-03T08:16:33;102348.50;;;16.46;62.27
48606;BME280;8482;54.396;18.590;2022-09-03T08:18:59;102333.38;;;16.45;61.41
48606;BME280;8482;54.396;18.590;2022-09-03T08:21:26;102338.25;;;16.51;60.76
48606;BME280;8482;54.396;18.590;2022-09-03T08:23:54;102352.97;;;16.57;60.28
48606;BME280;8482;54.396;18.590;2022-09-03T08:26:32;102344.94;;;16.57;59.91
48606;BME280;8482;54.396;18.590;2022-09-03T08:28:59;102357.50;;;16.68;59.72
48606;BME280;8482;54.396;18.590;2022-09-03T08:31:26;102351.03;;;16.70;59.34
48606;BME280;8482;54.396;18.590;2022-09-03T08:33:55;102362.84;;;16.79;58.32
48606;BME280;8482;54.396;18.590;2022-09-03T08:36:28;102361.50;;;16.85;57.79
48606;BME280;8482;54.396;18.590;2022-09-03T08:38:56;102342.63;;;16.87;57.71
48606;BME280;8482;54.396;18.590;2022-09-03T08:42:38;102356.03;;;16.98;57.67
48606;BME280;8482;54.396;18.590;2022-09-03T08:50:22;102351.25;;;17.13;55.83
48606;BME280;8482;54.396;18.590;2022-09-03T08:55:35;102356.13;;;17.19;55.34
48606;BME280;8482;54.396;18.590;2022-09-03T08:58:20;102357.44;;;17.25;55.46
48606;BME280;8482;54.396;18.590;2022-09-03T09:03:55;102357.06;;;17.29;54.47
48606;BME280;8482;54.396;18.590;2022-09-03T09:06:54;102357.53;;;17.35;54.42
48606;BME280;8482;54.396;18.590;2022-09-03T09:12:46;102350.69;;;17.42;54.45
48606;BME280;8482;54.396;18.590;2022-09-03T09:15:27;102359.91;;;17.49;54.72
48606;BME280;8482;54.396;18.590;2022-09-03T09:18:36;102352.47;;;17.53;54.20
48606;BME280;8482;54.396;18.590;2022-09-03T09:21:26;102349.66;;;17.54;53.68
48606;BME280;8482;54.396;18.590;2022-09-03T09:24:01;102353.31;;;17.53;53.77
48606;BME280;8482;54.396;18.590;2022-09-03T09:26:29;102356.84;;;17.54;53.54
48606;BME280;8482;54.396;18.590;2022-09-03T09:29:08;102351.22;;;17.57;53.08
48606;BME280;8482;54.396;18.590;2022-09-03T09:31:39;102352.09;;;17.57;52.94
48606;BME280;8482;54.396;18.590;2022-09-03T09:34:09;102356.72;;;17.55;52.93
48606;BME280;8482;54.396;18.590;2022-09-03T09:36:51;102360.47;;;17.64;52.71
48606;BME280;8482;54.396;18.590;2022-09-03T09:39:18;102361.06;;;17.68;52.85
48606;BME280;8482;54.396;18.590;2022-09-03T09:44:25;102368.25;;;17.67;52.27
48606;BME280;8482;54.396;18.590;2022-09-03T09:47:05;102363.91;;;17.66;52.64
48606;BME280;8482;54.396;18.590;2022-09-03T09:49:51;102359.94;;;17.70;52.81
48606;BME280;8482;54.396;18.590;2022-09-03T09:52:18;102358.00;;;17.72;52.96
48606;BME280;8482;54.396;18.590;2022-09-03T09:54:46;102360.19;;;17.79;53.44
48606;BME280;8482;54.396;18.590;2022-09-03T09:57:21;102361.75;;;17.81;53.45
48606;BME280;8482;54.396;18.590;2022-09-03T09:59:47;102355.41;;;17.82;53.24
48606;BME280;8482;54.396;18.590;2022-09-03T10:02:26;102354.03;;;17.88;52.99
48606;BME280;8482;54.396;18.590;2022-09-03T10:05:24;102356.44;;;17.91;53.07
48606;BME280;8482;54.396;18.590;2022-09-03T10:08:06;102355.94;;;17.97;52.94
48606;BME280;8482;54.396;18.590;2022-09-03T10:10:44;102340.78;;;17.96;52.18
48606;BME280;8482;54.396;18.590;2022-09-03T10:13:20;102341.66;;;17.97;51.53
48606;BME280;8482;54.396;18.590;2022-09-03T10:18:45;102354.31;;;18.06;51.51
48606;BME280;8482;54.396;18.590;2022-09-03T10:21:19;102352.22;;;18.10;51.12
48606;BME280;8482;54.396;18.590;2022-09-03T10:24:00;102351.81;;;18.14;51.21
48606;BME280;8482;54.396;18.590;2022-09-03T10:26:30;102345.91;;;18.20;51.52
48606;BME280;8482;54.396;18.590;2022-09-03T10:29:02;102352.34;;;18.29;51.88
48606;BME280;8482;54.396;18.590;2022-09-03T10:34:49;102346.31;;;18.47;51.71
48606;BME280;8482;54.396;18.590;2022-09-03T10:37:43;102343.94;;;18.53;51.39
48606;BME280;8482;54.396;18.590;2022-09-03T10:40:28;102340.00;;;18.58;51.13
48606;BME280;8482;54.396;18.590;2022-09-03T10:46:02;102318.78;;;18.54;49.78
48606;BME280;8482;54.396;18.590;2022-09-03T10:51:35;102333.44;;;18.72;50.58
48606;BME280;8482;54.396;18.590;2022-09-03T10:57:24;102328.06;;;18.72;49.21
48606;BME280;8482;54.396;18.590;2022-09-03T11:05:55;102317.75;;;18.87;49.74
48606;BME280;8482;54.396;18.590;2022-09-03T11:08:30;102327.00;;;18.94;49.67
48606;BME280;8482;54.396;18.590;2022-09-03T11:14:06;102319.41;;;19.09;49.71
48606;BME280;8482;54.396;18.590;2022-09-03T11:16:46;102316.84;;;19.17;49.71
48606;BME280;8482;54.396;18.590;2022-09-03T11:19:18;102316.88;;;19.27;49.99
48606;BME280;8482;54.396;18.590;2022-09-03T11:21:47;102310.91;;;19.33;49.81
48606;BME280;8482;54.396;18.590;2022-09-03T11:24:21;102319.25;;;19.40;50.06
48606;BME280;8482;54.396;18.590;2022-09-03T11:27:21;102327.06;;;19.43;49.63
48606;BME280;8482;54.396;18.590;2022-09-03T11:30:13;102315.31;;;19.44;49.08
48606;BME280;8482;54.396;18.590;2022-09-03T11:33:06;102317.44;;;19.50;49.11
48606;BME280;8482;54.396;18.590;2022-09-03T11:38:07;102298.44;;;19.52;48.56
48606;BME280;8482;54.396;18.590;2022-09-03T11:43:42;102303.13;;;19.59;48.69
48606;BME280;8482;54.396;18.590;2022-09-03T11:46:13;102306.25;;;19.65;48.53
48606;BME280;8482;54.396;18.590;2022-09-03T11:49:22;102297.72;;;19.69;47.72
48606;BME280;8482;54.396;18.590;2022-09-03T11:51:40;102307.50;;;19.70;46.83
48606;BME280;8482;54.396;18.590;2022-09-03T11:56:41;102292.34;;;19.69;45.91
48606;BME280;8482;54.396;18.590;2022-09-03T12:01:52;102293.63;;;19.75;45.85
48606;BME280;8482;54.396;18.590;2022-09-03T12:10:24;102297.56;;;19.81;45.10
48606;BME280;8482;54.396;18.590;2022-09-03T12:13:32;102298.28;;;19.83;44.47
48606;BME280;8482;54.396;18.590;2022-09-03T12:18:53;102285.13;;;19.89;44.36
48606;BME280;8482;54.396;18.590;2022-09-03T12:21:22;102291.75;;;19.95;44.56
48606;BME280;8482;54.396;18.590;2022-09-03T12:23:51;102279.56;;;20.01;44.27
48606;BME280;8482;54.396;18.590;2022-09-03T12:26:23;102280.66;;;20.08;43.74
48606;BME280;8482;54.396;18.590;2022-09-03T12:28:54;102282.78;;;20.14;43.70
48606;BME280;8482;54.396;18.590;2022-09-03T12:31:27;102284.72;;;20.22;43.43
48606;BME280;8482;54.396;18.590;2022-09-03T12:34:02;102279.44;;;20.30;42.92
48606;BME280;8482;54.396;18.590;2022-09-03T12:36:51;102274.47;;;20.35;43.00
48606;BME280;8482;54.396;18.590;2022-09-03T12:39:25;102280.09;;;20.42;42.33
48606;BME280;8482;54.396;18.590;2022-09-03T12:42:03;102276.66;;;20.50;41.72
48606;BME280;8482;54.396;18.590;2022-09-03T12:47:15;102273.59;;;20.63;41.26
48606;BME280;8482;54.396;18.590;2022-09-03T12:49:48;102271.59;;;20.65;41.06
48606;BME280;8482;54.396;18.590;2022-09-03T12:52:27;102275.53;;;20.71;40.96
48606;BME280;8482;54.396;18.590;2022-09-03T12:55:11;102268.28;;;20.71;40.26
48606;BME280;8482;54.396;18.590;2022-09-03T12:58:15;102277.81;;;20.75;39.62
48606;BME280;8482;54.396;18.590;2022-09-03T13:00:52;102259.63;;;20.77;39.10
48606;BME280;8482;54.396;18.590;2022-09-03T13:03:46;102259.63;;;20.77;38.41
48606;BME280;8482;54.396;18.590;2022-09-03T13:06:20;102257.94;;;20.76;38.65
48606;BME280;8482;54.396;18.590;2022-09-03T13:11:21;102257.66;;;20.97;37.77
48606;BME280;8482;54.396;18.590;2022-09-03T13:14:11;102258.50;;;21.16;38.17
48606;BME280;8482;54.396;18.590;2022-09-03T13:22:30;102238.59;;;21.80;37.48
48606;BME280;8482;54.396;18.590;2022-09-03T13:28:45;102243.91;;;21.98;36.44
48606;BME280;8482;54.396;18.590;2022-09-03T13:34:30;102235.56;;;22.09;36.19
48606;BME280;8482;54.396;18.590;2022-09-03T13:37:47;102243.03;;;22.24;36.03
48606;BME280;8482;54.396;18.590;2022-09-03T13:39:59;102239.38;;;22.33;35.82
48606;BME280;8482;54.396;18.590;2022-09-03T13:42:52;102239.50;;;22.31;35.93
48606;BME280;8482;54.396;18.590;2022-09-03T13:45:43;102231.56;;;22.22;36.72
48606;BME280;8482;54.396;18.590;2022-09-03T13:54:29;102220.94;;;21.94;37.97
48606;BME280;8482;54.396;18.590;2022-09-03T13:57:03;102224.28;;;21.87;38.58
48606;BME280;8482;54.396;18.590;2022-09-03T13:59:50;102234.72;;;21.82;39.04
48606;BME280;8482;54.396;18.590;2022-09-03T14:02:49;102237.16;;;21.67;39.51
48606;BME280;8482;54.396;18.590;2022-09-03T14:08:04;102234.34;;;21.33;40.30
48606;BME280;8482;54.396;18.590;2022-09-03T14:11:06;102225.31;;;21.24;41.25
48606;BME280;8482;54.396;18.590;2022-09-03T14:16:59;102219.75;;;21.43;41.94
48606;BME280;8482;54.396;18.590;2022-09-03T14:24:57;102206.50;;;21.77;41.56
48606;BME280;8482;54.396;18.590;2022-09-03T14:27:31;102207.72;;;21.82;41.65
48606;BME280;8482;54.396;18.590;2022-09-03T14:30:00;102212.22;;;21.73;41.42
48606;BME280;8482;54.396;18.590;2022-09-03T14:38:44;102199.84;;;21.63;41.36
48606;BME280;8482;54.396;18.590;2022-09-03T14:41:53;102207.31;;;21.51;41.32
48606;BME280;8482;54.396;18.590;2022-09-03T14:50:43;102208.16;;;20.89;41.62
48606;BME280;8482;54.396;18.590;2022-09-03T14:56:22;102203.72;;;20.51;41.95
48606;BME280;8482;54.396;18.590;2022-09-03T14:59:32;102202.25;;;20.39;42.59
48606;BME280;8482;54.396;18.590;2022-09-03T15:05:27;102199.31;;;20.50;42.81
48606;BME280;8482;54.396;18.590;2022-09-03T15:11:18;102196.09;;;20.47;42.46
48606;BME280;8482;54.396;18.590;2022-09-03T15:13:52;102200.03;;;20.52;42.16
48606;BME280;8482;54.396;18.590;2022-09-03T15:19:54;102184.63;;;20.63;40.44
48606;BME280;8482;54.396;18.590;2022-09-03T15:33:51;102198.28;;;20.61;40.02
48606;BME280;8482;54.396;18.590;2022-09-03T15:36:37;102201.06;;;20.42;40.77
48606;BME280;8482;54.396;18.590;2022-09-03T15:39:16;102187.56;;;20.24;41.63
48606;BME280;8482;54.396;18.590;2022-09-03T15:41:49;102203.41;;;20.09;42.26
48606;BME280;8482;54.396;18.590;2022-09-03T15:44:20;102195.25;;;19.90;42.89
48606;BME280;8482;54.396;18.590;2022-09-03T15:46:57;102201.91;;;19.76;43.07
48606;BME280;8482;54.396;18.590;2022-09-03T15:55:35;102203.31;;;19.23;43.83
48606;BME280;8482;54.396;18.590;2022-09-03T15:58:28;102207.16;;;19.11;44.35
48606;BME280;8482;54.396;18.590;2022-09-03T16:01:03;102199.34;;;18.98;45.00
48606;BME280;8482;54.396;18.590;2022-09-03T16:04:00;102201.28;;;18.86;45.65
48606;BME280;8482;54.396;18.590;2022-09-03T16:06:45;102204.09;;;18.75;46.08
48606;BME280;8482;54.396;18.590;2022-09-03T16:12:46;102204.09;;;18.55;47.18
48606;BME280;8482;54.396;18.590;2022-09-03T16:15:33;102203.09;;;18.46;47.92
48606;BME280;8482;54.396;18.590;2022-09-03T16:20:58;102205.69;;;18.27;48.24
48606;BME280;8482;54.396;18.590;2022-09-03T16:26:53;102206.22;;;18.11;48.58
48606;BME280;8482;54.396;18.590;2022-09-03T16:29:27;102200.69;;;18.02;48.78
48606;BME280;8482;54.396;18.590;2022-09-03T16:35:13;102209.72;;;18.01;49.19
48606;BME280;8482;54.396;18.590;2022-09-03T16:49:59;102210.25;;;17.74;50.12
48606;BME280;8482;54.396;18.590;2022-09-03T16:52:39;102208.84;;;17.70;50.11
48606;BME280;8482;54.396;18.590;2022-09-03T17:00:48;102203.41;;;17.60;49.63
48606;BME280;8482;54.396;18.590;2022-09-03T17:21:04;102207.13;;;17.26;49.80
48606;BME280;8482;54.396;18.590;2022-09-03T17:30:16;102211.31;;;17.19;50.07
48606;BME280;8482;54.396;18.590;2022-09-03T17:33:02;102213.28;;;17.17;50.11